Time;durP1;ratioP1;P1;durP2;ratioP2;P2;SDS_P1;SDS_P2;PMS_P1;PMS_P2;Temp;Humidity;BMP_temperature;BMP_pressure;BME280_temperature;BME280_humidity;BME280_pressure;Samples;Min_cycle;Max_cycle;Signal;HPM_P1;HPM_P2
2023/04/19 00:01:00;;;;;;;7.10;4.20;;;7.90;80.60;;;;;;12767893;23;20237;-79
2023/04/19 00:06:03;;;;;;;5.93;3.73;;;7.70;77.40;;;;;;12793695;23;20213;-79
2023/04/19 00:11:05;;;;;;;6.00;3.77;;;7.70;78.70;;;;;;12768283;23;20581;-79
2023/04/19 00:16:08;;;;;;;4.93;3.67;;;7.60;73.80;;;;;;12791544;23;20182;-79
2023/04/19 00:21:10;;;;;;;6.40;4.53;;;7.60;75.40;;;;;;12767867;23;20566;-79
2023/04/19 00:26:14;;;;;;;4.63;4.00;;;7.70;77.00;;;;;;12793938;23;20172;-79
2023/04/19 00:31:21;;;;;;;6.43;4.87;;;7.60;82.30;;;;;;12793246;23;20234;-79
2023/04/19 00:36:24;;;;;;;7.13;4.20;;;7.50;80.00;;;;;;12793699;23;20670;-80
2023/04/19 00:41:27;;;;;;;7.10;4.10;;;7.40;81.60;;;;;;12767095;23;20186;-79
2023/04/19 00:46:31;;;;;;;4.37;3.97;;;7.20;78.80;;;;;;12792837;23;20201;-79
2023/04/19 00:51:35;;;;;;;4.43;3.20;;;7.10;82.80;;;;;;12741453;23;20205;-80
2023/04/19 00:56:39;;;;;;;8.10;3.60;;;7.10;88.00;;;;;;12793593;23;20177;-79
2023/04/19 01:01:42;;;;;;;6.67;4.03;;;6.90;82.90;;;;;;12765757;23;20194;-79
2023/04/19 01:06:44;;;;;;;6.87;4.70;;;6.70;84.30;;;;;;12792816;23;20175;-79
2023/04/19 01:11:47;;;;;;;6.23;3.57;;;6.90;89.20;;;;;;12766039;23;20206;-79
2023/04/19 01:16:50;;;;;;;5.73;4.20;;;6.90;95.30;;;;;;12766717;23;20193;-80
2023/04/19 01:21:52;;;;;;;5.03;3.20;;;7.00;99.90;;;;;;12766498;23;20187;-79
2023/04/19 01:26:55;;;;;;;4.57;3.67;;;7.00;94.60;;;;;;12810471;23;20226;-79
2023/04/19 01:31:57;;;;;;;5.83;3.20;;;7.00;98.30;;;;;;12800129;23;20649;-79
2023/04/19 01:37:01;;;;;;;7.40;3.90;;;6.90;97.40;;;;;;12765030;23;20179;-79
2023/04/19 01:42:03;;;;;;;7.80;4.20;;;7.00;98.20;;;;;;12766238;23;20226;-79
2023/04/19 01:47:08;;;;;;;4.50;3.17;;;;;;;;;;12790868;23;20729;-79
2023/04/19 01:52:11;;;;;;;6.27;3.67;;;5.70;92.20;;;;;;12791864;23;20213;-79
2023/04/19 01:57:15;;;;;;;4.53;3.27;;;5.70;93.20;;;;;;12765248;23;20570;-79
2023/04/19 02:02:17;;;;;;;8.87;4.40;;;5.80;96.40;;;;;;12764340;23;20179;-79
2023/04/19 02:07:20;;;;;;;3.50;3.10;;;5.80;99.90;;;;;;12766031;23;20187;-79
2023/04/19 02:12:24;;;;;;;5.23;3.63;;;5.60;96.60;;;;;;12791680;23;20661;-79
2023/04/19 02:17:27;;;;;;;6.00;3.67;;;5.50;99.90;;;;;;12740025;23;20181;-79
2023/04/19 02:22:29;;;;;;;5.53;3.70;;;5.20;97.60;;;;;;12765158;23;20187;-79
2023/04/19 02:27:32;;;;;;;9.97;3.60;;;5.30;99.90;;;;;;12791661;23;20190;-79
2023/04/19 02:32:35;;;;;;;5.77;3.40;;;5.10;98.90;;;;;;12791137;23;20657;-79
2023/04/19 02:37:41;;;;;;;2.80;2.50;;;5.20;99.90;;;;;;12764745;23;20176;-79
2023/04/19 02:42:43;;;;;;;6.43;3.47;;;5.10;99.90;;;;;;12764377;23;20527;-79
2023/04/19 02:47:46;;;;;;;6.27;5.10;;;5.00;98.90;;;;;;12764233;23;20233;-79
2023/04/19 02:52:48;;;;;;;8.07;3.37;;;4.80;99.90;;;;;;12764358;23;20199;-79
2023/04/19 02:57:52;;;;;;;4.40;3.33;;;4.80;99.90;;;;;;12763635;23;20180;-80
2023/04/19 03:02:55;;;;;;;5.93;3.73;;;4.70;99.90;;;;;;12763523;23;20523;-80
2023/04/19 03:07:59;;;;;;;5.93;3.03;;;4.70;99.90;;;;;;12763602;23;20184;-80
2023/04/19 03:13:01;;;;;;;8.30;4.00;;;4.50;99.90;;;;;;12763144;23;20203;-80
2023/04/19 03:18:05;;;;;;;5.10;3.13;;;4.50;99.90;;;;;;12763626;23;20179;-79
2023/04/19 03:23:08;;;;;;;6.47;2.80;;;4.70;99.90;;;;;;12762902;23;20183;-79
2023/04/19 03:28:11;;;;;;;4.03;3.23;;;4.60;99.90;;;;;;12790607;23;20175;-79
2023/04/19 03:33:32;;;;;;;3.63;3.13;;;4.40;99.90;;;;;;12810482;23;20205;-79
2023/04/19 03:38:36;;;;;;;4.10;3.20;;;4.50;99.90;;;;;;12789014;23;20206;-79
2023/04/19 03:43:42;;;;;;;6.83;4.07;;;4.40;99.90;;;;;;12762390;23;20180;-79
2023/04/19 03:48:44;;;;;;;4.37;3.23;;;4.50;99.90;;;;;;12791072;23;20200;-79
2023/04/19 03:53:47;;;;;;;7.20;4.20;;;4.80;99.90;;;;;;12742888;23;20225;-79
2023/04/19 03:58:52;;;;;;;4.67;3.80;;;5.10;99.90;;;;;;12767010;23;20214;-79
2023/04/19 04:03:55;;;;;;;4.07;3.07;;;5.00;99.90;;;;;;12766074;23;20183;-79
2023/04/19 04:08:59;;;;;;;9.33;3.03;;;5.00;99.90;;;;;;12767008;23;20199;-79
2023/04/19 04:14:03;;;;;;;6.73;3.30;;;5.00;99.90;;;;;;12766841;23;20515;-79
2023/04/19 04:19:10;;;;;;;6.90;3.40;;;5.30;99.90;;;;;;12765916;23;20491;-79
2023/04/19 04:24:16;;;;;;;9.60;3.67;;;5.20;99.90;;;;;;12766226;23;20871;-79
2023/04/19 04:29:44;;;;;;;6.73;3.90;;;4.90;99.90;;;;;;12766209;23;20214;-79
2023/04/19 04:34:47;;;;;;;4.83;3.40;;;4.90;99.90;;;;;;12765446;23;20587;-79
2023/04/19 04:40:00;;;;;;;7.23;3.20;;;5.20;99.90;;;;;;12765643;23;20175;-79
2023/04/19 04:45:06;;;;;;;6.57;3.17;;;5.20;99.90;;;;;;12765146;23;20200;-79
2023/04/19 04:50:11;;;;;;;6.73;3.73;;;5.30;99.90;;;;;;12764145;23;20183;-80
2023/04/19 04:55:13;;;;;;;4.77;3.87;;;5.30;99.90;;;;;;12766158;23;20335;-80
2023/04/19 05:00:18;;;;;;;7.17;4.20;;;5.40;99.90;;;;;;12789625;23;20634;-80
2023/04/19 05:05:30;;;;;;;6.03;3.60;;;5.40;99.90;;;;;;12765089;23;20236;-79
2023/04/19 05:10:33;;;;;;;4.40;3.70;;;5.60;99.90;;;;;;12766949;23;20187;-79
2023/04/19 05:15:35;;;;;;;4.30;3.40;;;5.60;99.90;;;;;;12741116;23;20199;-79
2023/04/19 05:20:38;;;;;;;6.07;4.27;;;5.70;99.90;;;;;;12764843;23;20179;-78
2023/04/19 05:25:48;;;;;;;7.87;4.17;;;7.20;99.90;;;;;;12765487;23;20584;-78
2023/04/19 05:30:52;;;;;;;10.43;4.47;;;6.40;99.90;;;;;;12765361;23;20504;-78
2023/04/19 05:35:57;;;;;;;6.80;4.00;;;6.30;99.90;;;;;;12789686;23;20517;-79
2023/04/19 05:41:00;;;;;;;11.63;5.60;;;6.30;99.90;;;;;;12764713;23;20183;-78
2023/04/19 05:46:02;;;;;;;8.47;5.50;;;6.40;99.90;;;;;;12763735;23;20581;-78
2023/04/19 05:51:06;;;;;;;8.93;5.40;;;6.70;99.90;;;;;;12789589;23;20516;-78
2023/04/19 05:56:31;;;;;;;8.90;4.47;;;6.80;99.90;;;;;;12783545;23;20650;-78
2023/04/19 06:01:34;;;;;;;5.40;4.07;;;6.80;99.90;;;;;;12764435;23;20222;-78
2023/04/19 06:06:37;;;;;;;8.07;4.33;;;6.60;99.90;;;;;;12765068;23;20179;-78
2023/04/19 06:11:40;;;;;;;6.30;4.43;;;6.30;99.90;;;;;;12763809;23;20254;-78
2023/04/19 06:16:52;;;;;;;4.87;4.10;;;6.50;99.90;;;;;;12789654;23;20180;-78
2023/04/19 06:21:55;;;;;;;5.43;3.73;;;6.40;99.90;;;;;;12766579;23;20176;-78
2023/04/19 06:26:57;;;;;;;8.03;4.93;;;6.40;99.90;;;;;;12809724;23;20175;-78
2023/04/19 06:32:00;;;;;;;7.57;4.60;;;6.30;99.90;;;;;;12764051;23;20203;-78
2023/04/19 06:37:03;;;;;;;7.30;4.70;;;6.00;99.90;;;;;;12791979;23;20167;-78
2023/04/19 06:42:06;;;;;;;10.13;5.50;;;5.80;99.90;;;;;;12791024;23;20545;-78
2023/04/19 06:47:08;;;;;;;5.70;4.30;;;5.60;99.90;;;;;;12762983;23;20238;-78
2023/04/19 06:52:11;;;;;;;4.87;3.57;;;5.60;99.90;;;;;;12789881;23;20567;-78
2023/04/19 06:57:13;;;;;;;6.93;5.03;;;5.90;99.90;;;;;;12762335;23;20206;-78
2023/04/19 07:02:15;;;;;;;5.93;3.80;;;6.30;99.90;;;;;;12763479;23;20225;-79
2023/04/19 07:07:18;;;;;;;6.53;4.53;;;6.40;99.90;;;;;;12761575;23;20187;-79
2023/04/19 07:12:21;;;;;;;6.37;4.30;;;6.70;99.90;;;;;;12789147;23;20199;-79
2023/04/19 07:17:24;;;;;;;5.93;4.70;;;7.00;99.90;;;;;;12789985;23;20164;-78
2023/04/19 07:22:26;;;;;;;6.80;4.17;;;7.00;99.90;;;;;;12763725;23;20184;-78
2023/04/19 07:27:29;;;;;;;7.80;4.60;;;6.80;99.90;;;;;;12766055;23;20187;-78
2023/04/19 07:32:31;;;;;;;9.50;5.83;;;6.50;99.90;;;;;;12795109;23;20187;-78
2023/04/19 07:37:34;;;;;;;7.80;4.33;;;6.70;99.90;;;;;;12793277;23;20222;-78
2023/04/19 07:42:36;;;;;;;8.27;5.63;;;7.10;99.90;;;;;;12793429;23;20487;-79
2023/04/19 07:47:39;;;;;;;8.63;5.97;;;7.30;99.90;;;;;;12789814;23;20586;-79
2023/04/19 07:52:42;;;;;;;7.43;4.50;;;6.60;99.90;;;;;;12789366;23;20188;-80
2023/04/19 07:57:47;;;;;;;8.17;5.13;;;6.50;99.90;;;;;;12806576;23;20167;-80
2023/04/19 08:02:49;;;;;;;7.80;5.27;;;6.30;99.90;;;;;;12763741;23;20168;-80
2023/04/19 08:07:52;;;;;;;7.20;5.30;;;6.00;99.90;;;;;;12763125;23;20507;-84
2023/04/19 08:12:55;;;;;;;11.30;6.57;;;6.00;99.90;;;;;;12781011;23;20242;-80
2023/04/19 08:18:07;;;;;;;8.83;5.00;;;6.20;99.90;;;;;;12794009;23;20176;-79
2023/04/19 08:23:10;;;;;;;7.37;5.20;;;6.50;99.90;;;;;;12763516;23;20184;-79
2023/04/19 08:28:25;;;;;;;8.53;4.27;;;6.30;99.90;;;;;;12806454;23;20199;-80
2023/04/19 08:33:28;;;;;;;6.33;4.33;;;6.50;99.90;;;;;;12787442;23;20246;-79
2023/04/19 08:38:30;;;;;;;6.97;4.37;;;6.40;99.90;;;;;;12787390;23;20534;-80
2023/04/19 08:43:35;;;;;;;6.33;4.97;;;6.40;99.90;;;;;;12762219;23;20183;-80
2023/04/19 08:48:41;;;;;;;9.23;5.20;;;6.40;99.90;;;;;;12761054;23;20208;-80
2023/04/19 08:53:44;;;;;;;5.80;4.20;;;6.30;99.90;;;;;;12788574;23;20649;-80
2023/04/19 08:58:47;;;;;;;11.73;5.20;;;6.30;99.90;;;;;;12785034;23;20180;-80
2023/04/19 09:03:52;;;;;;;6.27;5.07;;;6.10;99.90;;;;;;12761002;23;20702;-80
2023/04/19 09:09:18;;;;;;;7.90;5.47;;;6.10;99.90;;;;;;12788460;23;20649;-80
2023/04/19 09:14:25;;;;;;;6.37;4.47;;;6.50;99.90;;;;;;12788477;23;20609;-79
2023/04/19 09:19:48;;;;;;;9.50;5.80;;;6.60;99.90;;;;;;12789245;23;20171;-79
2023/04/19 09:24:51;;;;;;;8.90;5.60;;;6.60;99.90;;;;;;12781037;23;20199;-80
2023/04/19 09:30:20;;;;;;;10.80;6.00;;;6.40;99.90;;;;;;12786571;23;20187;-79
2023/04/19 09:35:48;;;;;;;11.33;6.23;;;6.30;99.90;;;;;;12786343;23;20207;-79
2023/04/19 09:40:51;;;;;;;9.57;6.60;;;6.20;99.90;;;;;;12786660;23;20600;-79
2023/04/19 09:45:54;;;;;;;6.87;4.20;;;6.20;99.90;;;;;;12786842;23;20755;-79
2023/04/19 09:50:59;;;;;;;8.03;4.40;;;5.60;99.90;;;;;;12787793;23;20544;-80
2023/04/19 09:56:11;;;;;;;6.97;5.93;;;5.70;99.90;;;;;;12760547;23;20682;-79
2023/04/19 10:01:15;;;;;;;7.63;5.80;;;5.50;99.90;;;;;;12787215;23;20211;-79
2023/04/19 10:06:19;;;;;;;9.13;6.43;;;5.50;99.90;;;;;;12788644;23;20229;-80
2023/04/19 10:11:29;;;;;;;9.17;4.07;;;5.80;99.90;;;;;;12760730;23;20179;-80
2023/04/19 10:16:32;;;;;;;6.90;5.60;;;6.20;99.90;;;;;;12786814;23;20192;-81
2023/04/19 10:21:35;;;;;;;6.77;5.90;;;6.10;99.90;;;;;;12787996;23;20237;-81
2023/04/19 10:27:10;;;;;;;9.07;5.50;;;6.40;99.90;;;;;;12787626;23;20234;-80
2023/04/19 10:32:13;;;;;;;6.67;5.87;;;6.10;99.90;;;;;;12760572;23;20246;-81
2023/04/19 10:37:16;;;;;;;7.13;6.30;;;5.90;99.90;;;;;;12786830;23;20690;-80
2023/04/19 10:42:19;;;;;;;9.23;6.13;;;6.00;99.90;;;;;;12786100;23;20171;-79
2023/04/19 10:47:40;;;;;;;8.50;6.77;;;6.00;99.90;;;;;;12788498;23;20227;-80
2023/04/19 10:52:43;;;;;;;6.53;5.87;;;6.20;99.90;;;;;;12786467;23;20257;-80
2023/04/19 10:58:05;;;;;;;6.67;5.87;;;6.10;99.90;;;;;;12737338;23;20182;-80
2023/04/19 11:03:44;;;;;;;7.80;6.03;;;6.20;99.90;;;;;;12762125;23;20249;-80
2023/04/19 11:08:47;;;;;;;7.33;5.93;;;6.50;99.90;;;;;;12788703;23;20178;-79
2023/04/19 11:13:50;;;;;;;8.30;5.77;;;6.30;99.90;;;;;;12762564;23;20581;-79
2023/04/19 11:18:54;;;;;;;9.37;4.97;;;6.40;99.90;;;;;;12788885;23;20175;-80
2023/04/19 11:24:07;;;;;;;10.07;6.70;;;6.70;99.90;;;;;;12807477;23;20246;-80
2023/04/19 11:29:10;;;;;;;8.73;5.93;;;6.60;99.90;;;;;;12805930;23;20175;-80
2023/04/19 11:34:13;;;;;;;10.37;7.50;;;6.80;99.90;;;;;;12787521;23;20226;-79
2023/04/19 11:39:16;;;;;;;8.63;6.60;;;6.80;99.90;;;;;;12761382;23;20182;-79
2023/04/19 11:44:19;;;;;;;8.50;7.37;;;6.70;99.90;;;;;;12788703;23;20174;-80
2023/04/19 11:49:32;;;;;;;13.63;7.90;;;6.90;99.90;;;;;;12762295;23;20195;-80
2023/04/19 11:54:35;;;;;;;11.07;7.37;;;7.00;99.90;;;;;;12806377;23;20188;-79
2023/04/19 11:59:38;;;;;;;10.83;6.27;;;7.10;99.90;;;;;;12787726;23;20576;-79
2023/04/19 12:04:40;;;;;;;9.33;6.43;;;7.20;99.90;;;;;;12737941;23;20211;-78
2023/04/19 12:09:48;;;;;;;9.33;6.90;;;7.20;99.90;;;;;;12788702;23;20180;-78
2023/04/19 12:14:53;;;;;;;8.03;6.67;;;7.30;99.90;;;;;;12764943;23;20306;-79
2023/04/19 12:19:55;;;;;;;6.57;5.10;;;7.60;99.90;;;;;;12790945;23;20176;-79
2023/04/19 12:24:58;;;;;;;11.67;7.00;;;7.30;99.90;;;;;;12792289;23;20167;-79
2023/04/19 12:30:00;;;;;;;13.60;8.47;;;7.20;99.90;;;;;;12784028;23;20484;-80
2023/04/19 12:35:03;;;;;;;10.97;7.43;;;7.20;99.90;;;;;;12764658;23;20204;-80
2023/04/19 12:40:06;;;;;;;9.13;6.57;;;7.50;99.90;;;;;;12764263;23;20702;-79
2023/04/19 12:45:10;;;;;;;9.90;7.40;;;7.70;99.90;;;;;;12764776;23;20551;-79
2023/04/19 12:50:14;;;;;;;12.87;7.13;;;7.50;99.90;;;;;;12781747;23;20221;-80
2023/04/19 12:55:16;;;;;;;8.77;7.47;;;7.60;99.90;;;;;;12790849;23;20237;-79
2023/04/19 13:00:19;;;;;;;5.27;4.70;;;7.80;99.90;;;;;;12737675;23;20183;-80
2023/04/19 13:05:22;;;;;;;12.97;8.30;;;8.00;99.90;;;;;;12789341;23;20171;-78
2023/04/19 13:10:25;;;;;;;11.80;8.27;;;7.90;99.90;;;;;;12738639;23;20507;-79
2023/04/19 13:15:28;;;;;;;9.83;7.83;;;7.80;99.90;;;;;;12739434;23;20262;-80
2023/04/19 13:20:31;;;;;;;13.27;6.97;;;8.10;99.90;;;;;;12760858;23;20230;-80
2023/04/19 13:25:33;;;;;;;10.53;7.27;;;7.80;99.90;;;;;;12762009;23;20180;-79
2023/04/19 13:30:36;;;;;;;10.00;8.00;;;8.00;99.90;;;;;;12788727;23;20179;-78
2023/04/19 13:35:38;;;;;;;12.17;6.93;;;8.10;99.90;;;;;;12787581;23;20307;-79
2023/04/19 13:40:41;;;;;;;12.00;7.20;;;8.20;99.90;;;;;;12761969;23;20175;-79
2023/04/19 13:45:43;;;;;;;9.97;7.53;;;8.20;99.90;;;;;;12786883;23;20543;-80
2023/04/19 13:50:46;;;;;;;14.13;10.30;;;8.50;99.90;;;;;;12761027;23;20183;-80
2023/04/19 13:55:52;;;;;;;15.90;11.27;;;8.50;99.90;;;;;;12787360;23;20231;-79
2023/04/19 14:00:54;;;;;;;16.40;10.00;;;8.80;99.90;;;;;;12805392;23;20508;-81
2023/04/19 14:05:58;;;;;;;20.43;13.87;;;9.40;99.90;;;;;;12789859;23;20265;-80
2023/04/19 14:11:01;;;;;;;16.30;9.90;;;9.50;99.90;;;;;;12791658;23;20190;-80
2023/04/19 14:16:03;;;;;;;18.80;16.03;;;9.80;99.90;;;;;;12766133;23;20203;-80
2023/04/19 14:21:06;;;;;;;13.30;8.10;;;9.60;99.90;;;;;;12766119;23;20168;-80
2023/04/19 14:26:09;;;;;;;8.37;6.57;;;10.20;99.90;;;;;;12791573;23;20171;-79
2023/04/19 14:31:11;;;;;;;13.23;7.73;;;10.70;99.90;;;;;;12790518;23;20187;-80
2023/04/19 14:36:14;;;;;;;7.73;6.20;;;10.50;99.90;;;;;;12763889;23;20204;-80
2023/04/19 14:41:16;;;;;;;13.47;9.33;;;10.40;99.90;;;;;;12765207;23;20176;-80
2023/04/19 14:46:19;;;;;;;15.63;10.40;;;10.20;99.90;;;;;;12791280;23;20191;-80
2023/04/19 14:51:22;;;;;;;18.10;13.13;;;10.30;99.90;;;;;;12763961;23;20733;-80
2023/04/19 14:56:24;;;;;;;14.70;10.50;;;10.00;99.90;;;;;;12808392;23;20218;-80
2023/04/19 15:01:27;;;;;;;10.90;8.67;;;9.60;99.90;;;;;;12791400;23;20854;-79
2023/04/19 15:06:30;;;;;;;14.33;10.53;;;9.40;99.90;;;;;;12764995;23;20180;-80
2023/04/19 15:11:33;;;;;;;20.73;16.00;;;9.60;99.90;;;;;;12791622;23;20614;-80
2023/04/19 15:16:35;;;;;;;10.70;7.17;;;9.80;99.90;;;;;;12788919;23;20617;-80
2023/04/19 15:21:38;;;;;;;10.97;9.37;;;9.90;99.90;;;;;;12792187;23;20172;-80
2023/04/19 15:26:40;;;;;;;12.60;9.63;;;9.70;99.90;;;;;;12791228;23;20176;-80
2023/04/19 15:31:45;;;;;;;13.17;10.40;;;9.60;99.90;;;;;;12790343;23;20215;-80
2023/04/19 15:36:48;;;;;;;19.83;12.80;;;9.40;99.90;;;;;;12761808;23;20242;-79
2023/04/19 15:41:51;;;;;;;12.83;9.10;;;9.40;99.90;;;;;;12761684;23;20180;-79
2023/04/19 15:46:53;;;;;;;16.10;9.13;;;9.70;99.90;;;;;;12789251;23;20200;-79
2023/04/19 15:51:56;;;;;;;12.87;9.03;;;9.90;99.90;;;;;;12765160;23;20180;-79
2023/04/19 15:57:00;;;;;;;14.07;10.00;;;10.10;99.90;;;;;;12763483;23;20207;-80
2023/04/19 16:02:03;;;;;;;14.53;9.57;;;10.40;99.90;;;;;;12789395;23;20180;-80
2023/04/19 16:07:05;;;;;;;10.00;8.83;;;9.70;99.90;;;;;;12789538;23;20172;-78
2023/04/19 16:12:08;;;;;;;10.20;7.77;;;9.70;99.90;;;;;;12789421;23;20210;-79
2023/04/19 16:17:10;;;;;;;11.47;9.53;;;10.20;99.90;;;;;;12763334;23;20192;-79
2023/04/19 16:22:13;;;;;;;12.67;10.37;;;10.10;99.90;;;;;;12788471;23;20164;-79
2023/04/19 16:27:15;;;;;;;12.37;9.57;;;9.90;99.90;;;;;;12788651;23;20702;-79
2023/04/19 16:32:18;;;;;;;11.90;8.23;;;9.70;99.90;;;;;;12788551;23;20168;-80
2023/04/19 16:37:20;;;;;;;22.17;13.73;;;9.70;99.90;;;;;;12789845;23;20195;-80
2023/04/19 16:42:23;;;;;;;12.23;9.00;;;9.40;99.90;;;;;;12791127;23;20218;-80
2023/04/19 16:47:25;;;;;;;15.67;11.23;;;9.10;99.90;;;;;;12789727;23;20219;-79
2023/04/19 16:52:31;;;;;;;16.47;11.23;;;9.10;99.90;;;;;;12763251;23;20188;-79
2023/04/19 16:57:35;;;;;;;12.90;10.13;;;8.90;99.90;;;;;;12806720;23;20234;-80
2023/04/19 17:02:38;;;;;;;12.83;10.07;;;9.30;99.90;;;;;;12761394;23;20183;-79
2023/04/19 17:07:42;;;;;;;9.03;6.57;;;9.30;99.90;;;;;;12789505;23;20168;-79
2023/04/19 17:12:44;;;;;;;20.23;11.17;;;9.60;99.90;;;;;;12791801;23;20623;-80
2023/04/19 17:17:47;;;;;;;14.00;11.13;;;9.60;99.90;;;;;;12765615;23;20229;-80
2023/04/19 17:22:50;;;;;;;7.73;6.70;;;9.30;99.90;;;;;;12794125;23;20634;-81
2023/04/19 17:27:52;;;;;;;10.70;8.33;;;9.30;99.90;;;;;;12793828;23;20172;-80
2023/04/19 17:32:55;;;;;;;11.30;9.47;;;9.10;99.90;;;;;;12766254;23;20184;-80
2023/04/19 17:37:57;;;;;;;21.57;12.40;;;9.30;99.90;;;;;;12793828;23;20230;-80
2023/04/19 17:43:00;;;;;;;17.67;11.23;;;9.00;99.90;;;;;;12792242;23;20211;-80
2023/04/19 17:48:03;;;;;;;29.73;14.67;;;8.90;99.90;;;;;;12790741;23;20274;-80
2023/04/19 17:53:05;;;;;;;19.57;12.33;;;8.80;99.90;;;;;;12793443;23;20248;-80
2023/04/19 17:58:08;;;;;;;17.17;9.87;;;8.80;99.90;;;;;;12793020;23;20188;-80
2023/04/19 18:03:11;;;;;;;14.40;10.87;;;8.70;99.90;;;;;;12766346;23;20168;-81
2023/04/19 18:08:14;;;;;;;11.60;8.70;;;8.80;99.90;;;;;;12766461;23;20631;-80
2023/04/19 18:13:16;;;;;;;14.37;9.53;;;8.80;99.90;;;;;;12786981;23;20546;-79
2023/04/19 18:18:19;;;;;;;7.73;6.33;;;8.80;99.90;;;;;;12785131;23;20257;-80
2023/04/19 18:23:21;;;;;;;12.10;8.70;;;9.20;99.90;;;;;;12786320;23;20211;-80
2023/04/19 18:28:24;;;;;;;9.67;7.67;;;9.40;99.90;;;;;;12788885;23;20171;-81
2023/04/19 18:33:26;;;;;;;13.13;9.73;;;9.10;99.90;;;;;;12762456;23;20188;-80
2023/04/19 18:38:29;;;;;;;9.67;8.67;;;9.10;99.90;;;;;;12787176;23;20219;-80
2023/04/19 18:43:32;;;;;;;11.33;9.53;;;9.00;99.90;;;;;;12759719;23;20234;-80
2023/04/19 18:48:34;;;;;;;13.13;9.00;;;9.10;99.90;;;;;;12786858;23;20199;-81
2023/04/19 18:53:38;;;;;;;7.63;6.83;;;9.00;99.90;;;;;;12787563;23;20183;-81
2023/04/19 18:58:41;;;;;;;13.10;10.30;;;9.20;99.90;;;;;;12790788;23;20188;-80
2023/04/19 19:03:43;;;;;;;14.17;8.87;;;9.10;99.90;;;;;;12770856;23;20172;-82
2023/04/19 19:08:49;;;;;;;10.13;7.73;;;8.80;99.90;;;;;;12789543;23;20171;-81
2023/04/19 19:13:51;;;;;;;7.90;7.10;;;8.50;99.90;;;;;;12789586;23;20175;-81
2023/04/19 19:18:54;;;;;;;13.13;7.67;;;8.40;99.90;;;;;;12790920;23;20265;-82
2023/04/19 19:23:58;;;;;;;11.07;8.87;;;8.50;99.90;;;;;;12792267;23;20175;-81
2023/04/19 19:29:00;;;;;;;10.07;8.40;;;8.30;99.90;;;;;;12793454;23;20481;-81
2023/04/19 19:34:03;;;;;;;8.33;7.37;;;8.20;99.90;;;;;;12766835;23;20187;-81
2023/04/19 19:39:25;;;;;;;9.20;8.27;;;8.20;99.90;;;;;;12790127;23;20502;-81
2023/04/19 19:44:28;;;;;;;8.70;6.90;;;8.40;99.90;;;;;;12743246;23;20517;-81
2023/04/19 19:49:30;;;;;;;8.10;7.20;;;8.40;99.90;;;;;;12705870;23;20985;-81
2023/04/19 19:54:33;;;;;;;11.00;8.20;;;8.50;99.90;;;;;;12733342;23;20510;-81
2023/04/19 19:59:36;;;;;;;10.10;8.67;;;8.40;99.90;;;;;;12728513;23;20180;-81
2023/04/19 20:04:38;;;;;;;10.17;7.53;;;8.40;99.90;;;;;;12730841;23;20640;-81
2023/04/19 20:09:41;;;;;;;10.33;8.00;;;8.50;99.90;;;;;;12729890;23;20180;-81
2023/04/19 20:14:44;;;;;;;10.60;8.40;;;8.50;99.90;;;;;;12729386;23;20193;-82
2023/04/19 20:19:49;;;;;;;10.87;9.13;;;8.40;99.90;;;;;;12732290;23;20184;-82
2023/04/19 20:24:51;;;;;;;9.23;7.70;;;8.40;99.90;;;;;;12732909;23;20236;-81
2023/04/19 20:29:55;;;;;;;21.47;17.73;;;8.60;99.90;;;;;;12732347;23;20168;-81
2023/04/19 20:34:58;;;;;;;51.57;35.70;;;8.60;99.90;;;;;;12732439;23;20212;-81
2023/04/19 20:40:00;;;;;;;100.87;50.00;;;8.60;99.90;;;;;;12728687;23;20188;-81
2023/04/19 20:45:04;;;;;;;46.57;27.30;;;8.70;99.90;;;;;;12734863;23;20285;-81
2023/04/19 20:50:08;;;;;;;39.27;20.93;;;8.70;99.90;;;;;;12790763;23;20191;-81
2023/04/19 20:55:10;;;;;;;25.77;13.30;;;8.70;99.90;;;;;;12768410;23;20243;-81
2023/04/19 21:00:15;;;;;;;50.20;20.17;;;8.70;99.90;;;;;;12766925;23;20755;-81
2023/04/19 21:05:18;;;;;;;40.43;21.97;;;8.60;99.90;;;;;;12794026;23;20515;-81
2023/04/19 21:10:20;;;;;;;20.27;13.70;;;8.70;99.90;;;;;;12793294;23;20233;-81
2023/04/19 21:15:23;;;;;;;14.50;10.00;;;8.70;99.90;;;;;;12766583;23;20199;-81
2023/04/19 21:20:26;;;;;;;13.20;9.87;;;8.70;99.90;;;;;;12765652;23;20180;-81
2023/04/19 21:25:28;;;;;;;14.57;11.83;;;8.80;99.90;;;;;;12793715;23;20567;-81
2023/04/19 21:30:31;;;;;;;39.30;20.17;;;8.80;99.90;;;;;;12792254;23;20536;-81
2023/04/19 21:35:34;;;;;;;12.20;8.90;;;8.70;99.90;;;;;;12783618;23;20191;-80
2023/04/19 21:40:36;;;;;;;21.83;13.63;;;8.80;99.90;;;;;;12792430;23;20164;-80
2023/04/19 21:45:39;;;;;;;30.63;20.30;;;8.70;99.90;;;;;;12792281;23;20204;-80
2023/04/19 21:50:41;;;;;;;23.07;16.37;;;8.70;99.90;;;;;;12808856;23;20226;-80
2023/04/19 21:55:47;;;;;;;14.20;11.23;;;8.70;99.90;;;;;;12791376;23;20270;-79
2023/04/19 22:00:52;;;;;;;18.67;13.37;;;8.70;99.90;;;;;;12791999;23;20583;-80
2023/04/19 22:05:55;;;;;;;16.47;12.80;;;8.70;99.90;;;;;;12765634;23;20290;-79
2023/04/19 22:10:59;;;;;;;17.00;14.60;;;8.50;99.90;;;;;;12792075;23;20180;-79
2023/04/19 22:16:01;;;;;;;23.33;15.30;;;8.40;99.90;;;;;;12741137;23;20270;-79
2023/04/19 22:21:05;;;;;;;21.53;16.40;;;8.50;99.90;;;;;;12792423;23;20164;-79
2023/04/19 22:26:07;;;;;;;18.47;14.47;;;8.40;99.90;;;;;;12791359;23;20171;-80
2023/04/19 22:31:10;;;;;;;17.03;12.87;;;8.50;99.90;;;;;;12783802;23;20226;-80
2023/04/19 22:36:12;;;;;;;24.93;18.27;;;8.60;99.90;;;;;;12791418;23;20230;-79
2023/04/19 22:41:15;;;;;;;25.23;17.67;;;8.60;99.90;;;;;;12791456;23;20581;-79
2023/04/19 22:46:17;;;;;;;23.67;19.77;;;8.50;99.90;;;;;;12792124;23;20590;-79
2023/04/19 22:51:21;;;;;;;28.57;20.10;;;8.50;99.90;;;;;;12791848;23;20689;-79
2023/04/19 22:56:23;;;;;;;25.17;18.90;;;8.50;99.90;;;;;;12739659;23;20258;-79
2023/04/19 23:01:26;;;;;;;25.17;19.37;;;8.50;99.90;;;;;;12808702;23;20479;-80
2023/04/19 23:06:29;;;;;;;20.20;15.53;;;8.50;99.90;;;;;;12790881;23;20187;-79
2023/04/19 23:11:31;;;;;;;26.30;19.77;;;8.60;99.90;;;;;;12765789;23;20401;-80
2023/04/19 23:16:34;;;;;;;17.30;13.83;;;8.80;99.90;;;;;;12790767;23;20200;-80
2023/04/19 23:21:36;;;;;;;21.17;15.10;;;8.80;99.90;;;;;;12791975;23;20242;-80
2023/04/19 23:26:39;;;;;;;25.27;19.07;;;8.80;99.90;;;;;;12766381;23;20184;-80
2023/04/19 23:31:41;;;;;;;24.73;18.30;;;8.80;99.90;;;;;;12791817;23;20530;-80
2023/04/19 23:36:44;;;;;;;25.93;19.27;;;9.00;99.90;;;;;;12791442;23;20527;-80
2023/04/19 23:41:47;;;;;;;30.83;19.90;;;9.10;99.90;;;;;;12764908;23;20663;-80
2023/04/19 23:46:49;;;;;;;25.83;20.10;;;8.80;99.90;;;;;;12791122;23;20704;-80
2023/04/19 23:51:52;;;;;;;25.00;18.97;;;9.00;99.90;;;;;;12792133;23;20203;-81
2023/04/19 23:56:56;;;;;;;19.50;14.27;;;8.80;99.90;;;;;;12791590;23;20748;-80
